createdAt,value
2023-03-20T00:01:30.105Z,5.50
2023-03-20T00:03:57.876Z,5.50
2023-03-20T00:06:28.823Z,5.50
2023-03-20T00:08:57.631Z,5.50
2023-03-20T00:11:30.588Z,5.50
2023-03-20T00:14:04.285Z,5.50
2023-03-20T00:16:41.426Z,5.50
2023-03-20T00:19:16.447Z,5.50
2023-03-20T00:21:45.936Z,5.50
2023-03-20T00:24:13.098Z,5.50
2023-03-20T00:26:40.672Z,5.40
2023-03-20T00:29:08.298Z,5.40
2023-03-20T00:31:40.205Z,5.40
2023-03-20T00:34:14.061Z,5.30
2023-03-20T00:36:41.562Z,5.30
2023-03-20T00:39:10.621Z,5.40
2023-03-20T00:41:54.387Z,5.40
2023-03-20T00:44:27.870Z,5.40
2023-03-20T00:47:00.970Z,5.40
2023-03-20T00:49:34.361Z,5.40
2023-03-20T00:52:03.471Z,5.40
2023-03-20T00:54:31.052Z,5.30
2023-03-20T00:57:06.901Z,5.20
2023-03-20T00:59:38.446Z,5.20
2023-03-20T01:02:05.574Z,5.10
2023-03-20T01:04:39.341Z,5.10
2023-03-20T01:07:07.868Z,5.00
2023-03-20T01:09:35.732Z,5.10
2023-03-20T01:12:04.487Z,5.10
2023-03-20T01:14:32.202Z,5.20
2023-03-20T01:16:59.088Z,5.20
2023-03-20T01:19:26.438Z,5.20
2023-03-20T01:21:53.483Z,5.20
2023-03-20T01:24:20.594Z,5.30
2023-03-20T01:26:47.547Z,5.30
2023-03-20T01:29:23.643Z,5.40
2023-03-20T01:31:52.401Z,5.40
2023-03-20T01:34:21.248Z,5.50
2023-03-20T01:36:54.045Z,5.50
2023-03-20T01:39:24.335Z,5.50
2023-03-20T01:41:54.209Z,5.50
2023-03-20T01:44:24.720Z,5.50
2023-03-20T01:46:57.188Z,5.50
2023-03-20T01:49:24.804Z,5.50
2023-03-20T01:51:53.105Z,5.50
2023-03-20T01:54:28.355Z,5.50
2023-03-20T01:57:20.612Z,5.60
2023-03-20T01:59:52.435Z,5.60
2023-03-20T02:02:24.974Z,5.60
2023-03-20T02:04:56.429Z,5.60
2023-03-20T02:07:23.950Z,5.60
2023-03-20T02:10:00.349Z,5.60
2023-03-20T02:12:38.861Z,5.60
2023-03-20T02:15:08.380Z,5.60
2023-03-20T02:17:57.095Z,5.60
2023-03-20T02:20:33.562Z,5.60
2023-03-20T02:23:21.761Z,5.60
2023-03-20T02:26:19.476Z,5.60
2023-03-20T02:29:06.597Z,5.60
2023-03-20T02:31:49.409Z,5.60
2023-03-20T02:34:31.720Z,5.50
2023-03-20T02:37:23.649Z,5.60
2023-03-20T02:40:09.195Z,5.60
2023-03-20T02:42:45.191Z,5.50
2023-03-20T02:45:30.608Z,5.60
2023-03-20T02:48:20.838Z,5.60
2023-03-20T02:51:02.896Z,5.60
2023-03-20T02:54:00.796Z,5.60
2023-03-20T02:56:38.933Z,5.60
2023-03-20T02:59:43.754Z,5.60
2023-03-20T03:02:17.597Z,5.60
2023-03-20T03:04:51.590Z,5.60
2023-03-20T03:07:22.545Z,5.60
2023-03-20T03:10:12.464Z,5.70
2023-03-20T03:12:43.474Z,5.70
2023-03-20T03:15:28.052Z,5.70
2023-03-20T03:17:58.194Z,5.70
2023-03-20T03:20:32.574Z,5.70
2023-03-20T03:23:00.562Z,5.60
2023-03-20T03:25:33.118Z,5.50
2023-03-20T03:28:17.097Z,5.50
2023-03-20T03:30:45.267Z,5.50
2023-03-20T03:33:19.101Z,5.40
2023-03-20T03:35:47.495Z,5.40
2023-03-20T03:38:44.906Z,5.40
2023-03-20T03:41:20.595Z,5.50
2023-03-20T03:43:58.955Z,5.60
2023-03-20T03:46:37.756Z,5.50
2023-03-20T03:49:08.193Z,5.50
2023-03-20T03:51:41.109Z,5.50
2023-03-20T03:54:22.719Z,5.50
2023-03-20T03:57:13.065Z,5.40
2023-03-20T03:59:49.646Z,5.40
2023-03-20T04:02:19.767Z,5.40
2023-03-20T04:04:51.581Z,5.40
2023-03-20T04:07:18.882Z,5.40
2023-03-20T04:09:46.040Z,5.40
2023-03-20T04:12:40.711Z,5.30
2023-03-20T04:15:12.200Z,5.30
2023-03-20T04:17:39.541Z,5.30
2023-03-20T04:20:09.634Z,5.40
2023-03-20T04:22:36.534Z,5.40
2023-03-20T04:25:09.075Z,5.30
2023-03-20T04:27:36.397Z,5.40
2023-03-20T04:30:11.782Z,5.40
2023-03-20T04:32:58.090Z,5.40
2023-03-20T04:35:45.524Z,5.40
2023-03-20T04:38:15.126Z,5.40
2023-03-20T04:40:42.013Z,5.40
2023-03-20T04:43:09.374Z,5.40
2023-03-20T04:45:36.691Z,5.40
2023-03-20T04:48:07.978Z,5.40
2023-03-20T04:50:35.998Z,5.40
2023-03-20T04:53:03.598Z,5.30
2023-03-20T04:55:31.097Z,5.30
2023-03-20T04:57:58.251Z,5.30
2023-03-20T05:00:26.733Z,5.30
2023-03-20T05:02:53.665Z,5.30
2023-03-20T05:05:20.767Z,5.20
2023-03-20T05:07:47.849Z,5.30
2023-03-20T05:10:22.666Z,5.30
2023-03-20T05:12:58.104Z,5.30
2023-03-20T05:15:32.508Z,5.30
2023-03-20T05:18:08.225Z,5.30
2023-03-20T05:20:50.574Z,5.20
2023-03-20T05:23:53.121Z,5.30
2023-03-20T05:26:35.805Z,5.30
2023-03-20T05:29:22.965Z,5.30
2023-03-20T05:32:08.506Z,5.40
2023-03-20T05:34:46.636Z,5.40
2023-03-20T05:37:21.461Z,5.30
2023-03-20T05:39:57.397Z,5.30
2023-03-20T05:42:45.624Z,5.30
2023-03-20T05:45:42.821Z,5.30
2023-03-20T05:48:28.494Z,5.30
2023-03-20T05:51:12.677Z,5.40
2023-03-20T05:54:18.032Z,5.40
2023-03-20T05:57:00.882Z,5.50
2023-03-20T05:59:57.050Z,5.50
2023-03-20T06:02:46.154Z,5.50
2023-03-20T06:05:37.010Z,5.50
2023-03-20T06:08:04.456Z,5.50
2023-03-20T06:10:31.856Z,5.60
2023-03-20T06:13:01.126Z,5.60
2023-03-20T06:15:29.280Z,5.60
2023-03-20T06:18:04.325Z,5.70
2023-03-20T06:20:31.765Z,5.70
2023-03-20T06:23:02.246Z,5.70
2023-03-20T06:25:29.776Z,5.70
2023-03-20T06:27:57.898Z,5.70
2023-03-20T06:30:24.800Z,5.70
2023-03-20T06:32:52.018Z,5.80
2023-03-20T06:35:21.087Z,5.80
2023-03-20T06:37:50.816Z,5.90
2023-03-20T06:40:22.840Z,5.90
2023-03-20T06:42:50.363Z,6.10
2023-03-20T06:47:47.174Z,6.30
2023-03-20T06:50:14.551Z,6.40
2023-03-20T06:52:42.477Z,6.40
2023-03-20T06:55:29.084Z,6.70
2023-03-20T06:58:01.415Z,6.70
2023-03-20T07:00:30.795Z,7.00
2023-03-20T07:02:59.420Z,7.30
2023-03-20T07:05:28.521Z,7.50
2023-03-20T07:07:59.659Z,7.80
2023-03-20T07:10:27.707Z,7.90
2023-03-20T07:12:55.738Z,8.00
2023-03-20T07:15:23.286Z,8.00
2023-03-20T07:17:50.658Z,7.90
2023-03-20T07:20:17.683Z,7.70
2023-03-20T07:22:47.851Z,7.70
2023-03-20T07:25:41.471Z,7.70
2023-03-20T07:28:09.956Z,7.70
2023-03-20T07:30:39.863Z,7.70
2023-03-20T07:33:08.197Z,7.60
2023-03-20T07:35:36.494Z,7.60
2023-03-20T07:38:04.285Z,7.50
2023-03-20T07:40:32.369Z,7.40
2023-03-20T07:43:04.444Z,7.50
2023-03-20T07:45:49.433Z,7.40
2023-03-20T07:48:19.461Z,7.40
2023-03-20T07:50:46.532Z,7.60
2023-03-20T07:53:13.690Z,7.60
2023-03-20T07:55:40.733Z,7.70
2023-03-20T07:58:10.513Z,7.80
2023-03-20T08:00:37.803Z,7.90
2023-03-20T08:03:08.005Z,7.90
2023-03-20T08:05:35.823Z,8.10
2023-03-20T08:08:03.469Z,8.00
2023-03-20T08:10:30.614Z,8.10
2023-03-20T08:12:57.653Z,8.10
2023-03-20T08:15:24.572Z,8.20
2023-03-20T08:17:51.401Z,8.20
2023-03-20T08:20:19.892Z,8.30
2023-03-20T08:22:47.147Z,8.20
2023-03-20T08:25:14.929Z,8.30
2023-03-20T08:27:42.094Z,8.50
2023-03-20T08:30:09.668Z,8.60
2023-03-20T08:32:36.889Z,8.80
2023-03-20T08:35:03.866Z,8.90
2023-03-20T08:37:30.642Z,8.80
2023-03-20T08:39:57.402Z,8.70
2023-03-20T08:42:24.242Z,8.80
2023-03-20T08:44:51.081Z,9.00
2023-03-20T08:47:18.747Z,9.10
2023-03-20T08:49:46.296Z,9.00
2023-03-20T08:52:13.091Z,9.00
2023-03-20T08:54:39.854Z,9.00
2023-03-20T08:57:09.361Z,8.90
2023-03-20T08:59:38.958Z,9.00
2023-03-20T09:02:05.887Z,8.90
2023-03-20T09:04:32.789Z,9.00
2023-03-20T09:07:01.237Z,9.10
2023-03-20T09:09:29.595Z,9.00
2023-03-20T09:11:57.674Z,9.20
2023-03-20T09:14:26.122Z,9.30
2023-03-20T09:16:53.526Z,9.30
2023-03-20T09:19:20.605Z,9.40
2023-03-20T09:21:47.532Z,9.70
2023-03-20T09:24:14.330Z,10.10
2023-03-20T09:26:41.100Z,10.60
2023-03-20T09:29:07.902Z,10.90
2023-03-20T09:31:34.989Z,11.30
2023-03-20T09:34:01.923Z,12.10
2023-03-20T09:36:28.724Z,12.30
2023-03-20T09:38:55.609Z,12.40
2023-03-20T09:41:26.766Z,12.50
2023-03-20T09:44:26.839Z,12.60
2023-03-20T09:47:08.617Z,12.40
2023-03-20T09:50:05.950Z,12.50
2023-03-20T09:52:36.784Z,12.70
2023-03-20T09:55:21.824Z,12.90
2023-03-20T09:57:53.953Z,13.00
2023-03-20T10:00:24.654Z,12.70
2023-03-20T10:03:15.619Z,12.10
2023-03-20T10:05:57.155Z,12.10
2023-03-20T10:08:30.304Z,12.00
2023-03-20T10:11:35.469Z,12.10
2023-03-20T10:14:33.433Z,12.10
2023-03-20T10:17:09.552Z,11.80
2023-03-20T10:19:44.433Z,11.90
2023-03-20T10:22:32.492Z,12.40
2023-03-20T10:25:03.657Z,12.90
2023-03-20T10:27:44.163Z,12.60
2023-03-20T10:30:35.137Z,13.10
2023-03-20T10:33:08.276Z,13.00
2023-03-20T10:36:14.112Z,12.80
2023-03-20T10:38:41.049Z,13.00
2023-03-20T10:41:16.738Z,13.00
2023-03-20T10:43:45.816Z,12.90
2023-03-20T10:46:24.340Z,12.80
2023-03-20T10:48:59.057Z,12.70
2023-03-20T10:51:40.608Z,12.40
2023-03-20T10:54:20.794Z,11.80
2023-03-20T10:56:50.129Z,11.50
2023-03-20T10:59:46.612Z,11.70
2023-03-20T11:02:15.572Z,11.80
2023-03-20T11:04:42.655Z,11.80
2023-03-20T11:07:28.731Z,11.70
2023-03-20T11:10:04.789Z,11.70
2023-03-20T11:12:40.381Z,11.60
2023-03-20T11:15:24.387Z,11.40
2023-03-20T11:17:59.945Z,11.30
2023-03-20T11:20:33.821Z,11.10
2023-03-20T11:23:04.910Z,11.00
2023-03-20T11:25:46.921Z,11.00
2023-03-20T11:28:33.846Z,10.70
2023-03-20T11:31:05.573Z,10.80
2023-03-20T11:33:36.928Z,10.80
2023-03-20T11:36:21.757Z,10.80
2023-03-20T11:38:50.865Z,10.90
2023-03-20T11:41:28.294Z,11.40
2023-03-20T11:43:55.445Z,11.70
2023-03-20T11:46:24.478Z,11.80
2023-03-20T11:49:19.100Z,11.80
2023-03-20T11:51:46.413Z,11.80
2023-03-20T11:54:20.574Z,11.50
2023-03-20T11:56:57.876Z,11.80
2023-03-20T11:59:33.924Z,12.00
2023-03-20T12:02:04.459Z,11.70
2023-03-20T12:04:42.907Z,11.30
2023-03-20T12:07:35.310Z,11.10
2023-03-20T12:10:06.306Z,11.10
2023-03-20T12:12:49.310Z,11.20
2023-03-20T12:15:16.029Z,11.40
2023-03-20T12:17:46.370Z,11.50
2023-03-20T12:20:19.816Z,11.30
2023-03-20T12:22:56.243Z,11.20
2023-03-20T12:25:35.798Z,11.40
2023-03-20T12:28:10.967Z,11.50
2023-03-20T12:31:05.027Z,11.80
2023-03-20T12:33:54.988Z,11.90
2023-03-20T12:36:31.916Z,12.30
2023-03-20T12:38:59.305Z,12.90
2023-03-20T12:41:30.552Z,13.50
2023-03-20T12:44:28.433Z,14.30
2023-03-20T12:47:22.344Z,14.50
2023-03-20T12:50:13.691Z,14.00
2023-03-20T12:53:06.541Z,13.80
2023-03-20T12:55:46.377Z,13.10
2023-03-20T12:58:16.096Z,13.60
2023-03-20T13:00:54.347Z,13.80
2023-03-20T13:03:58.227Z,14.40
2023-03-20T13:06:35.960Z,15.00
2023-03-20T13:09:30.789Z,14.90
2023-03-20T13:12:19.776Z,14.70
2023-03-20T13:15:16.225Z,14.30
2023-03-20T13:18:17.766Z,13.90
2023-03-20T13:20:52.341Z,13.80
2023-03-20T13:23:31.250Z,13.30
2023-03-20T13:26:23.880Z,13.30
2023-03-20T13:29:25.797Z,13.20
2023-03-20T13:32:31.818Z,12.90
2023-03-20T13:35:13.283Z,13.10
2023-03-20T13:37:54.432Z,13.40
2023-03-20T13:40:30.590Z,13.70
2023-03-20T13:43:09.059Z,14.00
2023-03-20T13:45:40.240Z,14.40
2023-03-20T13:48:20.217Z,14.00
2023-03-20T13:51:14.128Z,13.70
2023-03-20T13:53:53.213Z,13.50
2023-03-20T13:56:31.681Z,13.60
2023-03-20T13:59:36.210Z,14.10
2023-03-20T14:02:03.035Z,14.10
2023-03-20T14:04:31.445Z,14.10
2023-03-20T14:06:59.830Z,14.10
2023-03-20T14:09:35.045Z,14.30
2023-03-20T14:12:07.511Z,14.20
2023-03-20T14:14:49.634Z,13.90
2023-03-20T14:17:24.505Z,14.00
2023-03-20T14:19:52.621Z,13.50
2023-03-20T14:22:49.136Z,13.40
2023-03-20T14:25:20.262Z,13.20
2023-03-20T14:27:54.719Z,13.10
2023-03-20T14:30:31.076Z,12.90
2023-03-20T14:33:00.311Z,12.80
2023-03-20T14:35:29.043Z,12.90
2023-03-20T14:38:09.785Z,13.00
2023-03-20T14:40:54.764Z,13.00
2023-03-20T14:43:50.682Z,13.00
2023-03-20T14:46:30.188Z,13.10
2023-03-20T14:48:57.391Z,13.40
2023-03-20T14:51:47.882Z,13.20
2023-03-20T14:54:31.844Z,13.00
2023-03-20T14:57:17.129Z,12.70
2023-03-20T14:59:44.342Z,12.70
2023-03-20T15:02:36.394Z,12.90
2023-03-20T15:05:04.634Z,12.60
2023-03-20T15:07:37.810Z,12.70
2023-03-20T15:10:05.735Z,12.70
2023-03-20T15:12:36.375Z,12.80
2023-03-20T15:15:06.581Z,12.60
2023-03-20T15:17:39.674Z,12.80
2023-03-20T15:20:19.463Z,13.00
2023-03-20T15:22:57.571Z,13.10
2023-03-20T15:25:33.736Z,13.80
2023-03-20T15:28:01.375Z,13.80
2023-03-20T15:30:38.972Z,13.90
2023-03-20T15:33:06.740Z,14.40
2023-03-20T15:35:33.987Z,14.30
2023-03-20T15:38:06.596Z,14.30
2023-03-20T15:40:50.080Z,13.50
2023-03-20T15:43:27.003Z,13.10
2023-03-20T15:46:14.330Z,12.60
2023-03-20T15:48:48.474Z,12.50
2023-03-20T15:51:16.271Z,12.70
2023-03-20T15:53:47.728Z,12.70
2023-03-20T15:56:20.311Z,13.00
2023-03-20T15:58:52.302Z,12.80
2023-03-20T16:01:24.374Z,12.50
2023-03-20T16:03:53.225Z,12.40
2023-03-20T16:06:22.449Z,12.40
2023-03-20T16:09:01.025Z,12.50
2023-03-20T16:11:38.111Z,12.50
2023-03-20T16:14:07.110Z,12.50
2023-03-20T16:16:37.753Z,12.20
2023-03-20T16:19:06.883Z,12.20
2023-03-20T16:21:40.698Z,11.90
2023-03-20T16:24:15.281Z,11.50
2023-03-20T16:26:47.881Z,11.40
2023-03-20T16:29:15.719Z,10.90
2023-03-20T16:32:06.350Z,10.90
2023-03-20T16:34:39.792Z,11.00
2023-03-20T16:37:22.129Z,11.00
2023-03-20T16:40:01.730Z,11.00
2023-03-20T16:42:30.145Z,10.80
2023-03-20T16:44:59.200Z,10.80
2023-03-20T16:47:46.329Z,10.90
2023-03-20T16:50:36.311Z,11.10
2023-03-20T16:53:10.420Z,11.40
2023-03-20T16:55:48.718Z,11.30
2023-03-20T16:58:23.415Z,10.80
2023-03-20T17:01:03.985Z,10.60
2023-03-20T17:03:56.590Z,10.20
2023-03-20T17:06:36.113Z,9.90
2023-03-20T17:09:20.153Z,9.60
2023-03-20T17:12:33.525Z,9.20
2023-03-20T17:15:27.032Z,9.00
2023-03-20T17:17:54.591Z,8.60
2023-03-20T17:20:28.928Z,8.30
2023-03-20T17:22:56.202Z,8.10
2023-03-20T17:25:24.263Z,7.90
2023-03-20T17:27:53.272Z,7.80
2023-03-20T17:30:23.645Z,7.60
2023-03-20T17:32:51.879Z,7.50
2023-03-20T17:35:19.846Z,7.40
2023-03-20T17:37:48.418Z,7.40
2023-03-20T17:40:25.545Z,7.50
2023-03-20T17:42:54.299Z,7.60
2023-03-20T17:45:22.488Z,7.70
2023-03-20T17:47:51.796Z,7.70
2023-03-20T17:50:25.940Z,7.70
2023-03-20T17:52:55.222Z,7.70
2023-03-20T17:55:23.336Z,7.70
2023-03-20T17:57:51.316Z,7.70
2023-03-20T18:00:23.449Z,7.70
2023-03-20T18:02:51.840Z,7.70
2023-03-20T18:05:24.713Z,7.70
2023-03-20T18:07:53.700Z,7.70
2023-03-20T18:10:32.588Z,7.70
2023-03-20T18:13:03.728Z,7.60
2023-03-20T18:15:31.502Z,7.70
2023-03-20T18:17:59.359Z,7.70
2023-03-20T18:20:34.258Z,7.80
2023-03-20T18:23:02.705Z,7.90
2023-03-20T18:25:30.878Z,8.00
2023-03-20T18:28:00.832Z,8.00
2023-03-20T18:30:38.557Z,8.10
2023-03-20T18:33:07.006Z,8.10
2023-03-20T18:35:36.038Z,8.10
2023-03-20T18:38:04.301Z,8.10
2023-03-20T18:40:37.167Z,8.10
2023-03-20T18:43:05.703Z,8.10
2023-03-20T18:45:33.617Z,8.10
2023-03-20T18:48:04.003Z,8.00
2023-03-20T18:50:38.103Z,8.00
2023-03-20T18:53:07.704Z,7.90
2023-03-20T18:55:36.913Z,7.80
2023-03-20T18:58:06.600Z,7.80
2023-03-20T19:00:40.612Z,7.80
2023-03-20T19:03:11.242Z,7.80
2023-03-20T19:05:41.302Z,7.70
2023-03-20T19:08:10.610Z,7.70
2023-03-20T19:10:40.832Z,7.70
2023-03-20T19:13:08.749Z,7.70
2023-03-20T19:15:40.754Z,7.60
2023-03-20T19:18:40.090Z,7.60
2023-03-20T19:21:07.721Z,7.50
2023-03-20T19:23:35.738Z,7.50
2023-03-20T19:26:03.509Z,7.50
2023-03-20T19:28:40.685Z,7.50
2023-03-20T19:31:10.031Z,7.60
2023-03-20T19:33:39.318Z,7.70
2023-03-20T19:39:53.332Z,7.70
2023-03-20T19:42:50.729Z,7.50
2023-03-20T19:45:09.962Z,7.40
2023-03-20T19:47:37.542Z,7.30
2023-03-20T19:50:08.346Z,7.10
2023-03-20T19:52:37.373Z,6.90
2023-03-20T19:55:05.461Z,6.80
2023-03-20T19:57:35.205Z,6.70
2023-03-20T20:03:30.793Z,6.60
2023-03-20T20:05:59.535Z,6.60
2023-03-20T20:08:43.429Z,6.60
2023-03-20T20:11:15.913Z,6.50
2023-03-20T20:14:10.017Z,6.50
2023-03-20T20:16:40.359Z,6.60
2023-03-20T20:19:08.160Z,6.90
2023-03-20T20:22:19.412Z,6.90
2023-03-20T20:24:24.433Z,6.90
2023-03-20T20:27:00.079Z,6.80
2023-03-20T20:29:40.940Z,6.80
2023-03-20T20:32:09.080Z,6.70
2023-03-20T20:35:30.723Z,6.70
2023-03-20T20:40:19.075Z,6.50
2023-03-20T20:42:49.547Z,6.50
2023-03-20T20:45:18.462Z,6.40
2023-03-20T20:47:47.503Z,6.50
2023-03-20T20:50:20.327Z,6.60
2023-03-20T20:52:48.055Z,6.70
2023-03-20T20:55:23.039Z,6.60
2023-03-20T20:57:58.976Z,6.60
2023-03-20T21:00:47.536Z,6.60
2023-03-20T21:03:15.038Z,6.60
2023-03-20T21:05:43.718Z,6.40
2023-03-20T21:08:16.742Z,6.40
2023-03-20T21:10:46.319Z,6.30
2023-03-20T21:13:15.797Z,6.30
2023-03-20T21:15:45.916Z,6.40
2023-03-20T21:18:14.518Z,6.30
2023-03-20T21:20:42.787Z,6.30
2023-03-20T21:23:12.092Z,6.40
2023-03-20T21:25:46.522Z,6.40
2023-03-20T21:28:15.037Z,6.40
2023-03-20T21:31:01.896Z,6.40
2023-03-20T21:33:41.993Z,6.40
2023-03-20T21:36:10.364Z,6.50
2023-03-20T21:41:33.799Z,6.50
2023-03-20T21:44:02.539Z,6.50
2023-03-20T21:47:06.958Z,6.50
2023-03-20T21:53:05.904Z,6.60
2023-03-20T22:01:45.095Z,6.50
2023-03-20T22:04:31.943Z,6.50
2023-03-20T22:07:23.954Z,6.40
2023-03-20T22:12:56.198Z,6.20
2023-03-20T22:15:33.787Z,6.10
2023-03-20T22:18:19.380Z,6.00
2023-03-20T22:21:21.905Z,5.90
2023-03-20T22:29:52.444Z,5.70
2023-03-20T22:32:40.913Z,5.60
2023-03-20T22:35:31.460Z,5.70
2023-03-20T22:41:20.799Z,5.70
2023-03-20T22:44:13.641Z,5.70
2023-03-20T22:46:10.176Z,5.80
2023-03-20T22:48:46.490Z,5.90
2023-03-20T22:51:13.733Z,6.00
2023-03-20T22:53:40.690Z,6.10
2023-03-20T22:56:08.011Z,6.10
2023-03-20T22:58:34.781Z,6.00
2023-03-20T23:01:02.127Z,5.80
2023-03-20T23:03:40.997Z,5.70
2023-03-20T23:06:30.376Z,5.50
2023-03-20T23:09:02.415Z,5.50
2023-03-20T23:11:32.578Z,5.50
2023-03-20T23:13:59.521Z,5.50
2023-03-20T23:16:26.479Z,5.40
2023-03-20T23:18:53.582Z,5.30
2023-03-20T23:21:21.020Z,5.30
2023-03-20T23:23:47.809Z,5.30
2023-03-20T23:26:21.136Z,5.10
2023-03-20T23:28:49.568Z,4.90
2023-03-20T23:31:20.747Z,4.70
2023-03-20T23:33:51.022Z,4.50
2023-03-20T23:36:32.962Z,4.30
2023-03-20T23:39:08.066Z,4.10
2023-03-20T23:44:22.706Z,4.10
2023-03-20T23:46:52.421Z,4.00
2023-03-20T23:49:19.936Z,4.00
2023-03-20T23:51:47.008Z,3.90
2023-03-20T23:54:14.437Z,3.90
2023-03-20T23:56:41.272Z,3.80
2023-03-20T23:59:20.658Z,3.70
